Terminal Aerodrome Forecast
Issued by NWS Birmingham, AL

Home | Current Version | Previous Version | Text Only | Print | Product List | Glossary On
Versions: 1 2 3 4 5 6 7 8 9 10 11 12 13 14 15 16 17 18 19 20 21 22 23
017
FTUS44 KBMX 270808 AAA
TAFBHM
TAF AMD
KBHM 270808Z 2708/2806 01005KT P6SM OVC015
      TEMPO 2710/2713 2SM BR OVC006
     FM271600 32010KT P6SM SCT020
     FM280000 29004KT P6SM SKC=

USA.gov is the U.S. government's official web portal to all federal, state and local government web resources and services.